Airfield :







YOU CAN JOIN US ON...

 
LOGIN :

Register | Disclaimer

   EN    FR    IT 

 









Legend :    VFR   Marginal VFR   IFR   Intensive IFR   Very Intensive IFR
Visi :
Ceiling :
>= 8 km
>= 3000ft
5 to 8 km
1000 to 3000 ft
1500m to 5 km
500 to 1000 ft
800 to 1500m
200 to 500 ft
< 800m
< 200 ft
Symbols :   Thunderstorms  Fog  Heavy snow  Heavy precipitations  Wind > 20 kt






- Airport Elevation : 489 ft


KHUL - Houlton International

CURRENT METAR :
  • 180808Z AUTO 35006KT 10SM SCT020 BKN031 OVC040 02/M02 A2971 RMK AO2 T00171017

EXPIRED METARs :
  • 180753Z AUTO 36005KT 10SM FEW021 BKN028 OVC043 02/M02 A2971 RMK AO2 SNE09 SLP065 P0000 T00171017
  • 180745Z AUTO 01006KT 10SM FEW021 SCT028 OVC045 02/M02 A2971 RMK AO2 SNE09 P0000 T00171017
  • 180653Z AUTO 36006KT 5SM -SN OVC023 01/M02 A2971 RMK AO2 SNB33 SLP066 P0000 T00111017
  • 180600Z AUTO 01006KT 10SM BKN020 OVC037 02/M02 A2972 RMK AO2 T00171022
  • 180553Z AUTO 36008KT 10SM SCT020 OVC037 02/M02 A2972 RMK AO2 SLP068 T00171022 10033 20017 57009
  • 180546Z AUTO 01008KT 10SM FEW020 OVC037 02/M02 A2972 RMK AO2 T00171022

TAF KHUL
Valid from the 18 at 06:00 until the 19 at 06:00 UTC


180522Z 1806/1906 36006KT P6SM VCSH OVC023
FM180800 35007KT P6SM VCSH OVC018
FM181000 35007KT P6SM OVC010
FM182000 32005KT P6SM BKN023
FM190400 30006KT P6SM SCT060
KZBW FIR / North America



MET'MAP, your aeronautical weather chart ! - Copyright ORBIFLY December 2007 - Disclaimer

ORBIFLY MET'MAP TEAM :

Programming & Development : Alexandra Zaïnal
Concept & original design : Baudouin d'Aumeries
Assistance for programming : Marc-Olivier Méhu
Technical & hardware support : Manuel Goepfert

Contact : metmap@orbifly.com




SOURCES & CREDITS :

   NOAA